Time;durP1;ratioP1;P1;durP2;ratioP2;P2;SDS_P1;SDS_P2;PMS_P1;PMS_P2;Temp;Humidity;BMP_temperature;BMP_pressure;BME280_temperature;BME280_humidity;BME280_pressure;Samples;Min_cycle;Max_cycle;Signal;HPM_P1;HPM_P2
2022/08/30 00:01:31;;;;;;;20.37;14.60;;;;;;;19.82;100.00;99363.50;1709374;82;21549;-75
2022/08/30 00:04:07;;;;;;;19.87;12.98;;;;;;;19.79;100.00;99360.29;1689609;83;20936;-75
2022/08/30 00:06:35;;;;;;;19.20;13.55;;;;;;;19.74;100.00;99363.42;1710775;83;21108;-75
2022/08/30 00:09:11;;;;;;;16.73;14.13;;;;;;;19.66;100.00;99363.72;1704909;83;21058;-75
2022/08/30 00:11:40;;;;;;;23.18;13.38;;;;;;;19.54;100.00;99364.80;1718778;83;20943;-75
2022/08/30 00:14:13;;;;;;;22.42;13.70;;;;;;;19.42;100.00;99358.06;1708508;83;20969;-75
2022/08/30 00:16:45;;;;;;;19.90;14.05;;;;;;;19.35;100.00;99363.55;1696786;82;20920;-75
2022/08/30 00:19:15;;;;;;;19.57;13.28;;;;;;;19.32;100.00;99367.09;1694539;83;20908;-75
2022/08/30 00:21:44;;;;;;;21.65;14.60;;;;;;;19.27;100.00;99354.30;1714865;83;20888;-76
2022/08/30 00:24:10;;;;;;;20.95;14.80;;;;;;;19.25;100.00;99358.64;1709206;83;20915;-75
2022/08/30 00:26:41;;;;;;;20.82;14.38;;;;;;;19.23;100.00;99365.98;1717373;83;20932;-76
2022/08/30 00:29:12;;;;;;;17.82;12.10;;;;;;;19.24;100.00;99356.45;1687435;83;21403;-75
2022/08/30 00:31:40;;;;;;;24.65;13.32;;;;;;;19.24;100.00;99360.63;1708903;82;21747;-75
2022/08/30 00:34:15;;;;;;;20.90;14.30;;;;;;;19.26;100.00;99364.42;1703468;83;21506;-75
2022/08/30 00:36:44;;;;;;;18.95;13.75;;;;;;;19.26;100.00;99369.98;1715397;82;20918;-74
2022/08/30 00:39:13;;;;;;;20.97;14.43;;;;;;;19.26;100.00;99375.55;1708791;83;20935;-75
2022/08/30 00:41:44;;;;;;;21.10;14.63;;;;;;;19.26;100.00;99369.98;1697262;83;20880;-74
2022/08/30 00:44:16;;;;;;;20.00;14.40;;;;;;;19.25;100.00;99374.75;1697272;83;21308;-74
2022/08/30 00:46:43;;;;;;;;;;;;;;;19.24;100.00;99368.98;1715300;83;20856;-74
2022/08/30 00:49:10;;;;;;;21.00;15.40;;;;;;;19.23;100.00;99357.62;1710694;83;20429;-74
2022/08/30 00:51:42;;;;;;;20.32;14.30;;;;;;;19.25;100.00;99360.84;1713757;83;20907;-74
2022/08/30 00:54:11;;;;;;;29.72;15.13;;;;;;;19.25;100.00;99360.03;1711205;83;20896;-74
2022/08/30 00:56:40;;;;;;;21.35;15.00;;;;;;;19.25;100.00;99369.19;1714838;83;21901;-74
2022/08/30 00:59:14;;;;;;;22.02;15.78;;;;;;;19.26;100.00;99368.01;1695614;83;20971;-74
2022/08/30 01:01:42;;;;;;;;;;;;;;;19.29;100.00;99369.23;1712590;83;20886;-74
2022/08/30 01:04:13;;;;;;;19.45;14.00;;;;;;;19.32;100.00;99372.66;1720174;82;20142;-74
2022/08/30 01:06:41;;;;;;;19.12;14.63;;;;;;;19.35;100.00;99377.46;1709064;82;20852;-74
2022/08/30 01:09:12;;;;;;;20.40;15.53;;;;;;;19.34;100.00;99379.45;1714166;82;21147;-74
2022/08/30 01:11:44;;;;;;;24.43;16.30;;;;;;;19.34;100.00;99381.42;1695795;81;20883;-74
2022/08/30 01:14:16;;;;;;;25.32;15.78;;;;;;;19.32;100.00;99376.23;1717984;82;20888;-74
2022/08/30 01:16:49;;;;;;;24.37;15.43;;;;;;;19.30;100.00;99382.77;1707647;82;21547;-74
2022/08/30 01:19:33;;;;;;;22.48;15.70;;;;;;;19.31;100.00;99380.79;1693366;83;20928;-74
2022/08/30 01:22:09;;;;;;;;;;;;;;;19.26;100.00;99384.70;1716336;83;21436;-74
2022/08/30 01:24:42;;;;;;;22.52;15.13;;;;;;;19.22;100.00;99390.01;1690460;83;20110;-75
2022/08/30 01:27:10;;;;;;;23.00;15.53;;;;;;;19.18;100.00;99389.16;1688008;83;20899;-74
2022/08/30 01:29:43;;;;;;;20.27;15.32;;;;;;;19.14;100.00;99387.12;1710392;82;20869;-75
2022/08/30 01:32:27;;;;;;;24.77;17.02;;;;;;;19.09;100.00;99383.28;1695000;83;20877;-75
2022/08/30 01:34:53;;;;;;;26.48;16.87;;;;;;;19.06;100.00;99395.78;1686030;83;22187;-75
2022/08/30 01:37:29;;;;;;;23.62;16.05;;;;;;;19.04;100.00;99395.36;1707479;83;21526;-74
2022/08/30 01:40:07;;;;;;;22.67;17.40;;;;;;;19.00;100.00;99385.57;1713767;83;21467;-74
2022/08/30 01:42:39;;;;;;;23.90;16.00;;;;;;;18.97;100.00;99385.52;1717533;83;21550;-74
2022/08/30 01:45:14;;;;;;;21.73;16.25;;;;;;;18.93;100.00;99388.84;1698930;83;20919;-74
2022/08/30 01:47:47;;;;;;;28.95;17.57;;;;;;;18.88;100.00;99388.56;1708296;83;21881;-74
2022/08/30 01:50:21;;;;;;;;;;;;;;;18.86;100.00;99390.92;1719537;83;20935;-74
2022/08/30 01:52:49;;;;;;;26.73;17.87;;;;;;;18.84;100.00;99387.72;1703019;83;20412;-75
2022/08/30 01:55:26;;;;;;;25.68;17.32;;;;;;;18.81;100.00;99398.20;1737443;82;20966;-75
2022/08/30 01:57:58;;;;;;;24.35;17.52;;;;;;;18.77;100.00;99407.88;1722052;82;21040;-74
2022/08/30 02:00:26;;;;;;;27.37;18.05;;;;;;;18.75;100.00;99401.08;1725848;82;21251;-74
2022/08/30 02:02:57;;;;;;;26.45;17.55;;;;;;;18.73;100.00;99407.60;1707192;82;20892;-74
2022/08/30 02:05:27;;;;;;;24.40;18.15;;;;;;;18.69;100.00;99406.16;1718090;82;20975;-74
2022/08/30 02:07:55;;;;;;;28.83;18.32;;;;;;;18.68;100.00;99414.87;1724451;82;21005;-74
2022/08/30 02:10:22;;;;;;;27.52;19.10;;;;;;;18.64;100.00;99416.20;1712885;82;20920;-73
2022/08/30 02:12:55;;;;;;;76.28;20.15;;;;;;;18.60;100.00;99411.73;1687865;83;21415;-74
2022/08/30 02:15:22;;;;;;;;;;;;;;;18.55;100.00;99410.65;1720784;82;20889;-74
2022/08/30 02:17:52;;;;;;;24.75;17.85;;;;;;;18.48;100.00;99405.81;1714272;82;20127;-75
2022/08/30 02:20:23;;;;;;;28.42;18.50;;;;;;;18.43;100.00;99403.34;1707062;82;20979;-75
2022/08/30 02:22:54;;;;;;;31.97;19.17;;;;;;;18.38;100.00;99408.63;1690224;83;20856;-75
2022/08/30 02:25:24;;;;;;;21.42;16.27;;;;;;;18.33;100.00;99407.54;1713093;82;21016;-74
2022/08/30 02:27:53;;;;;;;28.70;18.35;;;;;;;18.30;100.00;99404.70;1716532;82;20895;-75
2022/08/30 02:30:21;;;;;;;25.55;17.77;;;;;;;18.26;100.00;99403.25;1708869;82;21436;-74
2022/08/30 02:32:53;;;;;;;25.15;17.48;;;;;;;18.21;100.00;99404.94;1713200;82;20971;-74
2022/08/30 02:35:19;;;;;;;;;;;;;;;18.17;100.00;99404.66;1727832;82;20883;-74
2022/08/30 02:37:48;;;;;;;25.80;17.65;;;;;;;18.13;100.00;99404.59;1713171;82;21964;-75
2022/08/30 02:40:17;;;;;;;20.30;16.85;;;;;;;18.10;100.00;99403.36;1710285;82;21015;-73
2022/08/30 02:42:46;;;;;;;22.70;15.30;;;;;;;18.12;100.00;99411.33;1701746;82;20988;-74
2022/08/30 02:45:14;;;;;;;24.87;16.67;;;;;;;18.17;100.00;99408.24;1715848;82;20895;-74
2022/08/30 02:47:41;;;;;;;22.98;15.83;;;;;;;18.24;100.00;99405.59;1708471;81;20933;-70
2022/08/30 02:50:14;;;;;;;25.70;15.23;;;;;;;18.34;100.00;99404.17;1711373;82;21147;-70
2022/08/30 02:52:41;;;;;;;26.55;17.37;;;;;;;18.40;100.00;99410.44;1718579;82;20932;-71
2022/08/30 02:55:11;;;;;;;21.82;16.97;;;;;;;18.42;100.00;99407.29;1698953;82;21392;-72
2022/08/30 02:57:44;;;;;;;;;;;;;;;18.33;100.00;99407.54;1703344;82;20860;-72
2022/08/30 03:00:17;;;;;;;26.17;17.15;;;;;;;18.28;100.00;99416.77;1723469;82;20104;-71
2022/08/30 03:02:48;;;;;;;21.57;17.12;;;;;;;18.21;100.00;99417.45;1724659;82;21795;-72
2022/08/30 03:05:22;;;;;;;34.08;17.15;;;;;;;18.20;100.00;99424.17;1697931;82;21431;-72
2022/08/30 03:07:53;;;;;;;;;;;;;;;18.21;100.00;99429.14;1664960;86;21000;-71
2022/08/30 03:10:21;;;;;;;24.32;16.80;;;;;;;18.20;100.00;99436.67;1662009;86;20146;-71
2022/08/30 03:12:49;;;;;;;23.98;15.70;;;;;;;18.20;100.00;99443.63;1708750;81;20936;-71
2022/08/30 03:15:24;;;;;;;28.92;15.65;;;;;;;18.23;100.00;99448.44;1712068;82;20964;-71
2022/08/30 03:17:54;;;;;;;31.17;19.42;;;;;;;18.38;100.00;99441.16;1726902;82;28106;-71
2022/08/30 03:20:23;;;;;;;34.85;19.23;;;;;;;18.50;100.00;99442.34;1715952;82;20972;-71
2022/08/30 03:22:53;;;;;;;24.27;16.15;;;;;;;18.60;100.00;99445.09;1718467;82;21008;-70
2022/08/30 03:25:23;;;;;;;43.60;27.60;;;;;;;18.60;100.00;99447.87;1718236;82;21427;-71
2022/08/30 03:27:59;;;;;;;;;;;;;;;18.61;100.00;99441.16;1716167;82;21224;-72
2022/08/30 03:30:25;;;;;;;30.65;23.85;;;;;;;18.65;100.00;99451.17;1721017;82;20117;-72
2022/08/30 03:32:56;;;;;;;55.60;45.55;;;;;;;18.65;100.00;99447.00;1700077;83;20968;-71
2022/08/30 03:35:30;;;;;;;48.20;39.03;;;;;;;18.73;100.00;99447.92;1727385;82;21058;-70
2022/08/30 03:38:02;;;;;;;21.82;14.85;;;;;;;18.82;100.00;99444.30;1723834;82;20928;-70
2022/08/30 03:40:30;;;;;;;33.92;22.80;;;;;;;18.85;100.00;99445.53;1717945;82;21135;-71
2022/08/30 03:43:00;;;;;;;18.20;13.60;;;;;;;18.83;100.00;99449.27;1710384;82;20942;-70
2022/08/30 03:45:26;;;;;;;15.48;12.53;;;;;;;18.80;100.00;99443.28;1721745;82;21592;-70
2022/08/30 03:47:56;;;;;;;23.38;13.95;;;;;;;18.75;100.00;99452.52;1731322;82;20890;-70
2022/08/30 03:50:27;;;;;;;20.37;14.60;;;;;;;18.80;100.00;99455.79;1715026;82;21010;-70
2022/08/30 03:52:56;;;;;;;20.45;14.40;;;;;;;18.90;100.00;99461.90;1715712;82;23318;-70
2022/08/30 03:55:29;;;;;;;22.65;15.98;;;;;;;18.91;100.00;99466.28;1730550;82;21020;-70
2022/08/30 03:58:03;;;;;;;29.10;15.78;;;;;;;18.92;100.00;99465.91;1715283;82;20982;-70
2022/08/30 04:00:34;;;;;;;19.98;13.88;;;;;;;18.94;100.00;99463.56;1708434;82;21450;-69
2022/08/30 04:03:02;;;;;;;19.80;12.95;;;;;;;18.97;100.00;99468.97;1714664;82;20994;-70
2022/08/30 04:05:33;;;;;;;15.83;11.43;;;;;;;18.94;100.00;99471.91;1709449;82;20941;-72
2022/08/30 04:08:09;;;;;;;20.68;12.00;;;;;;;18.90;100.00;99475.81;1708144;82;21419;-70
2022/08/30 04:10:38;;;;;;;16.20;10.90;;;;;;;18.90;100.00;99475.81;1711138;83;20967;-68
2022/08/30 04:13:10;;;;;;;16.17;11.57;;;;;;;18.91;100.00;99472.66;1720234;81;21070;-69
2022/08/30 04:15:42;;;;;;;18.40;11.53;;;;;;;18.91;100.00;99478.22;1717186;82;21015;-69
2022/08/30 04:18:11;;;;;;;14.87;11.08;;;;;;;18.88;100.00;99466.45;1694618;82;21021;-70
2022/08/30 04:20:42;;;;;;;20.20;12.45;;;;;;;18.87;100.00;99477.36;1713944;82;21392;-70
2022/08/30 04:23:12;;;;;;;14.25;10.98;;;;;;;18.85;100.00;99472.75;1717732;83;20995;-70
2022/08/30 04:25:42;;;;;;;17.73;11.40;;;;;;;18.82;100.00;99469.33;1712967;83;20932;-70
2022/08/30 04:28:15;;;;;;;18.82;10.32;;;;;;;18.82;100.00;99465.16;1712653;83;21680;-70
2022/08/30 04:30:45;;;;;;;;;;;;;;;18.80;100.00;99473.06;1711345;83;21375;-70
2022/08/30 04:33:13;;;;;;;12.05;9.55;;;;;;;18.78;100.00;99479.59;1718408;83;20085;-71
2022/08/30 04:35:46;;;;;;;12.88;10.03;;;;;;;18.79;100.00;99478.41;1695659;83;21442;-70
2022/08/30 04:38:16;;;;;;;17.35;10.80;;;;;;;18.83;100.00;99475.10;1710710;83;20892;-70
2022/08/30 04:40:50;;;;;;;11.95;9.03;;;;;;;18.87;100.00;99480.14;1713077;83;21410;-70
2022/08/30 04:43:28;;;;;;;11.43;8.43;;;;;;;18.90;100.00;99482.76;1647374;85;21055;-70
2022/08/30 04:46:09;;;;;;;10.72;9.05;;;;;;;18.91;100.00;99483.78;1650207;84;20999;-69
2022/08/30 04:48:42;;;;;;;11.63;8.55;;;;;;;18.91;100.00;99474.63;1670716;84;21030;-70
2022/08/30 04:51:13;;;;;;;15.20;11.38;;;;;;;18.94;100.00;99472.49;1666468;84;20959;-69
2022/08/30 04:53:43;;;;;;;12.40;9.38;;;;;;;18.98;100.00;99471.38;1666851;84;20939;-69
2022/08/30 04:56:21;;;;;;;14.25;9.05;;;;;;;19.07;100.00;99481.63;1650398;84;21577;-69
2022/08/30 04:58:47;;;;;;;9.38;7.75;;;;;;;19.14;100.00;99482.32;1668646;84;21015;-69
2022/08/30 05:01:26;;;;;;;16.70;8.93;;;;;;;19.22;100.00;99474.88;1658852;85;21575;-70
2022/08/30 05:04:00;;;;;;;11.80;8.40;;;;;;;19.26;100.00;99473.76;1706865;81;20891;-70
2022/08/30 05:06:31;;;;;;;15.58;9.53;;;;;;;19.28;100.00;99474.19;1729293;81;21531;-70
2022/08/30 05:09:07;;;;;;;13.15;8.60;;;;;;;19.33;100.00;99480.82;1713614;82;21491;-69
2022/08/30 05:11:42;;;;;;;17.82;10.10;;;;;;;19.35;100.00;99478.47;1703061;83;21036;-69
2022/08/30 05:14:11;;;;;;;18.37;10.17;;;;;;;19.41;100.00;99483.12;1726162;82;20890;-69
2022/08/30 05:16:43;;;;;;;14.40;9.38;;;;;;;19.50;100.00;99486.42;1727247;81;20943;-69
2022/08/30 05:19:09;;;;;;;19.98;10.98;;;;;;;19.58;100.00;99489.55;1704105;82;20969;-69
2022/08/30 05:21:45;;;;;;;17.40;10.50;;;;;;;19.69;100.00;99481.31;1724185;82;22141;-71
2022/08/30 05:24:19;;;;;;;11.95;8.90;;;;;;;19.75;100.00;99485.38;1704299;82;21645;-71
2022/08/30 05:26:49;;;;;;;12.43;8.10;;;;;;;19.84;100.00;99489.27;1659161;84;21071;-71
2022/08/30 05:29:20;;;;;;;11.53;8.48;;;;;;;19.96;100.00;99491.80;1713789;82;20944;-72
2022/08/30 05:31:49;;;;;;;9.75;7.12;;;;;;;20.13;100.00;99488.42;1685351;83;20951;-72
2022/08/30 05:34:25;;;;;;;12.30;7.67;;;;;;;20.23;100.00;99489.10;1714269;82;21168;-71
2022/08/30 05:36:58;;;;;;;15.40;7.22;;;;;;;20.31;100.00;99498.34;1687534;84;21732;-70
2022/08/30 05:39:25;;;;;;;14.68;8.13;;;;;;;20.40;100.00;99496.88;1711726;83;21517;-73
2022/08/30 05:42:00;;;;;;;16.23;7.83;;;;;;;20.53;99.23;99491.84;1651196;84;21022;-70
2022/08/30 05:44:31;;;;;;;8.88;6.47;;;;;;;20.59;98.26;99493.69;1643728;84;21016;-71
2022/08/30 05:47:03;;;;;;;8.88;6.78;;;;;;;20.63;96.48;99492.53;1679426;85;20977;-70
2022/08/30 05:49:34;;;;;;;10.40;8.13;;;;;;;20.63;94.55;99492.53;1687903;84;20903;-71
2022/08/30 05:52:04;;;;;;;12.53;7.77;;;;;;;20.60;95.34;99489.70;1686050;84;20943;-71
2022/08/30 05:54:35;;;;;;;12.23;6.95;;;;;;;20.64;95.86;99493.33;1688157;84;21759;-71
2022/08/30 05:57:08;;;;;;;15.70;7.90;;;;;;;20.67;95.07;99493.36;1686484;84;21462;-70
2022/08/30 05:59:37;;;;;;;11.40;6.17;;;;;;;20.73;94.68;99493.81;1685440;84;21905;-71
2022/08/30 06:02:08;;;;;;;11.85;6.40;;;;;;;20.84;95.04;99489.70;1687180;84;21517;-70
2022/08/30 06:04:40;;;;;;;11.57;6.80;;;;;;;20.92;91.79;99492.16;1686346;84;21062;-71
2022/08/30 06:07:07;;;;;;;9.13;5.92;;;;;;;20.95;90.62;99494.18;1659382;84;21027;-71
2022/08/30 06:09:35;;;;;;;9.23;6.10;;;;;;;21.03;88.42;99495.03;1677075;83;21141;-71
2022/08/30 06:12:07;;;;;;;12.75;5.72;;;;;;;21.07;87.64;99490.28;1690490;84;20928;-71
2022/08/30 06:14:34;;;;;;;17.50;5.45;;;;;;;21.15;87.64;99494.73;1681447;84;20960;-72
2022/08/30 06:17:07;;;;;;;7.33;4.70;;;;;;;21.23;84.52;99495.61;1693435;84;20955;-71
2022/08/30 06:19:40;;;;;;;8.20;4.85;;;;;;;21.29;82.83;99496.85;1702537;84;21109;-71
2022/08/30 06:22:08;;;;;;;7.78;4.25;;;;;;;21.32;80.29;99498.27;1687120;83;20946;-71
2022/08/30 06:24:39;;;;;;;8.03;5.00;;;;;;;21.34;80.32;99494.50;1695782;83;39013;-71
2022/08/30 06:27:06;;;;;;;13.88;5.62;;;;;;;21.41;79.90;99497.91;1685180;84;21534;-72
2022/08/30 06:29:33;;;;;;;11.00;4.37;;;;;;;21.49;80.36;99497.34;1681895;84;20980;-72
2022/08/30 06:32:02;;;;;;;10.13;5.08;;;;;;;21.62;78.79;99503.61;1688446;83;21471;-71
2022/08/30 06:34:31;;;;;;;11.22;5.00;;;;;;;21.74;77.48;99501.88;1712409;81;21046;-72
2022/08/30 06:37:03;;;;;;;8.15;5.00;;;;;;;21.79;77.10;99495.12;1724562;82;21162;-72
2022/08/30 06:39:33;;;;;;;;;;;;;;;21.91;77.66;99498.17;1696065;82;21012;-72
2022/08/30 06:42:08;;;;;;;9.28;4.37;;;;;;;22.05;75.35;99496.83;1709895;82;20399;-75
2022/08/30 06:44:40;;;;;;;8.73;4.72;;;;;;;22.10;73.81;99498.44;1706749;82;21011;-71
2022/08/30 06:47:11;;;;;;;12.20;5.08;;;;;;;22.11;71.28;99502.24;1712830;82;21486;-70
2022/08/30 06:49:39;;;;;;;7.53;4.53;;;;;;;22.16;72.50;99503.26;1714814;82;21238;-73
2022/08/30 06:52:08;;;;;;;8.68;4.37;;;;;;;22.27;71.92;99500.50;1719987;82;21029;-72
2022/08/30 06:54:40;;;;;;;9.58;4.22;;;;;;;22.34;69.18;99503.31;1713230;82;20952;-73
2022/08/30 06:57:11;;;;;;;13.28;4.40;;;;;;;22.37;71.12;99509.52;1694098;82;21002;-69
2022/08/30 06:59:41;;;;;;;11.95;3.70;;;;;;;22.49;70.86;99504.95;1714810;82;21042;-72
2022/08/30 07:02:15;;;;;;;14.38;4.17;;;;;;;22.59;67.60;99511.73;1712486;82;21994;-72
2022/08/30 07:04:40;;;;;;;9.38;3.85;;;;;;;22.60;65.50;99509.13;1713225;82;21000;-72
2022/08/30 07:07:13;;;;;;;;;;;;;;;22.58;65.92;99519.32;1702867;81;21410;-71
2022/08/30 07:09:43;;;;;;;11.05;4.20;;;;;;;22.60;65.49;99516.92;1712675;81;20567;-72
2022/08/30 07:12:14;;;;;;;11.83;4.90;;;;;;;22.69;66.13;99514.55;1720640;82;20994;-70
2022/08/30 07:14:46;;;;;;;8.73;4.30;;;;;;;22.80;65.43;99510.39;1706462;82;21140;-70
2022/08/30 07:20:06;;;;;;;35.40;4.95;;;;;;;23.13;65.40;99509.16;1650124;85;21030;-72
2022/08/30 07:22:39;;;;;;;11.50;4.67;;;;;;;23.31;64.92;99509.95;1640148;87;21479;-74
2022/08/30 07:25:08;;;;;;;10.25;4.33;;;;;;;23.36;63.83;99516.55;1625750;86;21577;-72
2022/08/30 07:27:39;;;;;;;8.68;4.12;;;;;;;23.38;64.08;99511.94;1661006;84;21246;-71
2022/08/30 07:30:11;;;;;;;9.25;3.83;;;;;;;23.42;62.85;99519.73;1639162;86;21035;-71
2022/08/30 07:32:40;;;;;;;7.40;3.90;;;;;;;23.44;61.48;99513.14;1664149;86;21542;-70
2022/08/30 07:35:11;;;;;;;12.28;3.87;;;;;;;23.51;61.55;99510.92;1663460;86;20947;-72
2022/08/30 07:37:40;;;;;;;6.10;3.60;;;;;;;23.58;59.70;99508.14;1641628;86;21546;-71
2022/08/30 07:40:13;;;;;;;9.05;3.35;;;;;;;23.57;58.39;99500.33;1663360;86;21133;-73
2022/08/30 07:42:43;;;;;;;9.35;3.85;;;;;;;23.62;59.29;99502.72;1663144;86;21428;-72
2022/08/30 07:45:11;;;;;;;6.97;3.90;;;;;;;23.79;59.02;99503.04;1665798;86;20927;-71
2022/08/30 07:47:43;;;;;;;5.75;3.30;;;;;;;23.95;58.85;99506.98;1666300;85;20935;-72
2022/08/30 07:50:19;;;;;;;8.55;3.20;;;;;;;24.12;57.86;99500.31;1665992;86;21578;-74
2022/08/30 07:52:56;;;;;;;117.53;8.68;;;;;;;24.23;56.74;99496.84;1666441;85;21139;-73
2022/08/30 07:55:28;;;;;;;6.25;3.40;;;;;;;24.40;56.08;99496.55;1658968;84;21054;-74
2022/08/30 07:57:58;;;;;;;5.05;3.40;;;;;;;24.56;54.33;99503.27;1646655;85;21561;-74
2022/08/30 08:00:30;;;;;;;9.28;3.27;;;;;;;24.75;53.83;99499.13;1639415;87;21054;-71
2022/08/30 08:03:07;;;;;;;6.67;3.30;;;;;;;24.99;53.54;99500.95;1639028;87;21503;-73
2022/08/30 08:05:42;;;;;;;9.48;3.58;;;;;;;25.27;54.03;99499.09;1639703;87;21238;-74
2022/08/30 08:08:15;;;;;;;8.65;3.30;;;;;;;25.76;54.01;99502.00;1639412;87;21446;-72
2022/08/30 08:10:46;;;;;;;6.60;3.20;;;;;;;26.24;52.15;99493.33;1613173;87;20912;-71
2022/08/30 08:13:17;;;;;;;7.10;3.30;;;;;;;26.57;50.97;99494.47;1612348;87;20947;-73
2022/08/30 08:15:44;;;;;;;9.98;3.22;;;;;;;26.80;48.59;99489.50;1639820;87;21066;-72
2022/08/30 08:18:19;;;;;;;8.83;3.10;;;;;;;26.83;49.00;99492.86;1639450;86;21942;-72
2022/08/30 08:20:51;;;;;;;11.22;3.25;;;;;;;26.81;48.29;99493.91;1638786;87;21558;-72
2022/08/30 08:23:23;;;;;;;7.17;3.22;;;;;;;26.75;47.80;99489.98;1639520;86;20943;-72
2022/08/30 08:25:55;;;;;;;7.58;3.30;;;;;;;26.81;48.54;99496.72;1639175;87;20995;-72
2022/08/30 08:28:26;;;;;;;3.95;3.02;;;;;;;27.10;46.54;99507.55;1628643;86;21414;-72
2022/08/30 08:30:59;;;;;;;5.47;3.22;;;;;;;27.19;46.14;99496.50;1666917;86;22063;-72
2022/08/30 08:33:35;;;;;;;5.50;3.17;;;;;;;27.30;46.88;99497.91;1660160;86;21569;-72
2022/08/30 08:36:06;;;;;;;7.53;4.00;;;;;;;27.60;46.43;99497.59;1666294;85;21033;-72
2022/08/30 08:38:35;;;;;;;;;;;;;;;27.88;44.93;99497.00;1697049;83;20954;-72
2022/08/30 08:41:32;;;;;;;;;;;;;;;28.06;44.32;99503.69;1689116;83;20121;-72
2022/08/30 08:43:59;;;;;;;7.00;3.08;;;;;;;28.15;43.24;99500.28;1711652;82;21171;-72
2022/08/30 08:46:51;;;;;;;9.48;3.42;;;;;;;28.03;44.52;99505.97;1714718;83;20979;-72
2022/08/30 08:49:22;;;;;;;7.12;3.00;;;;;;;28.17;43.03;99507.08;1712013;83;20951;-72
2022/08/30 08:54:57;;;;;;;10.05;3.22;;;;;;;28.41;41.92;99497.89;1713332;83;20892;-71
2022/08/30 08:57:28;;;;;;;5.80;2.95;;;;;;;28.48;41.24;99497.73;1661528;86;21095;-72
2022/08/30 09:00:02;;;;;;;6.50;3.00;;;;;;;28.35;40.98;99507.31;1661430;86;21084;-72
2022/08/30 09:02:58;;;;;;;7.40;3.58;;;;;;;28.32;41.96;99501.12;1661575;86;20880;-72
2022/08/30 09:05:37;;;;;;;5.58;2.70;;;;;;;28.59;41.87;99500.31;1637877;86;20960;-71
2022/08/30 09:08:12;;;;;;;4.65;3.20;;;;;;;28.82;40.30;99501.60;1661673;86;21282;-71
2022/08/30 09:10:45;;;;;;;4.37;2.62;;;;;;;28.93;40.25;99499.28;1661536;86;21172;-72
2022/08/30 09:13:15;;;;;;;12.05;2.95;;;;;;;29.15;40.18;99500.16;1661045;84;21102;-72
2022/08/30 09:15:50;;;;;;;5.92;2.90;;;;;;;29.31;38.53;99490.25;1662055;86;21039;-72
2022/08/30 09:18:23;;;;;;;8.23;3.00;;;;;;;29.28;38.68;99496.80;1661652;86;21071;-72
2022/08/30 09:20:54;;;;;;;8.15;2.83;;;;;;;29.43;38.90;99489.55;1656607;86;21003;-72
2022/08/30 09:23:31;;;;;;;8.75;3.00;;;;;;;29.71;37.08;99488.57;1639378;85;21163;-71
2022/08/30 09:26:05;;;;;;;6.80;3.12;;;;;;;29.54;35.92;99490.03;1655395;85;21023;-72
2022/08/30 09:28:48;;;;;;;5.78;2.92;;;;;;;29.30;37.59;99488.66;1651699;85;20960;-72
2022/08/30 09:31:33;;;;;;;6.60;2.95;;;;;;;29.37;38.20;99482.82;1642629;85;21081;-72
2022/08/30 09:34:08;;;;;;;7.45;2.77;;;;;;;29.58;37.27;99497.00;1666231;85;21553;-72
2022/08/30 09:36:52;;;;;;;7.62;3.30;;;;;;;29.74;36.98;99498.37;1643885;86;21241;-72
2022/08/30 09:39:36;;;;;;;17.07;3.12;;;;;;;29.82;36.49;99503.21;1665802;86;21023;-72
2022/08/30 09:42:25;;;;;;;7.92;2.95;;;;;;;29.66;36.33;99503.26;1666570;86;20999;-72
2022/08/30 09:45:09;;;;;;;7.70;3.45;;;;;;;29.47;36.44;99497.30;1672846;85;21069;-72
2022/08/30 09:47:31;;;;;;;8.25;3.22;;;;;;;29.43;35.69;99492.38;1692782;81;20968;-70
2022/08/30 09:50:14;;;;;;;10.58;3.17;;;;;;;29.29;36.09;99490.52;1676093;83;21534;-71
2022/08/30 09:53:21;;;;;;;9.80;3.20;;;;;;;29.28;36.40;99488.31;1660498;85;20944;-70
2022/08/30 09:55:54;;;;;;;6.83;2.77;;;;;;;29.53;36.24;99479.16;1674568;83;20983;-71
2022/08/30 09:58:50;;;;;;;5.47;2.62;;;;;;;29.54;35.68;99490.65;1686843;84;20940;-71
2022/08/30 10:01:41;;;;;;;8.13;3.30;;;;;;;29.51;35.91;99483.05;1689745;83;20922;-71
2022/08/30 10:04:39;;;;;;;5.92;3.47;;;;;;;29.65;35.82;99474.80;1695287;83;21113;-71
2022/08/30 10:07:33;;;;;;;4.75;2.75;;;;;;;29.89;34.90;99486.83;1638880;86;21090;-70
2022/08/30 10:10:10;;;;;;;3.98;2.85;;;;;;;29.78;35.65;99474.22;1684820;83;20947;-71
2022/08/30 10:13:30;;;;;;;7.80;2.65;;;;;;;29.93;35.31;99482.48;1663196;84;20951;-71
2022/08/30 10:16:25;;;;;;;10.60;2.72;;;;;;;30.16;35.02;99472.91;1662592;84;21045;-71
2022/08/30 10:19:22;;;;;;;10.68;2.70;;;;;;;30.31;33.87;99474.06;1674816;85;20860;-70
2022/08/30 10:22:09;;;;;;;7.67;2.47;;;;;;;30.12;34.31;99476.47;1681716;83;21511;-71
2022/08/30 10:24:41;;;;;;;15.50;2.72;;;;;;;30.14;32.83;99473.36;1696085;84;20915;-71
2022/08/30 10:27:22;;;;;;;4.92;2.87;;;;;;;30.18;33.53;99478.91;1685650;85;20947;-71
2022/08/30 10:30:04;;;;;;;7.30;2.92;;;;;;;30.37;33.88;99478.54;1687737;84;20936;-71
2022/08/30 10:33:00;;;;;;;7.05;2.55;;;;;;;30.47;32.70;99476.00;1697561;84;21108;-71
2022/08/30 10:35:43;;;;;;;10.45;2.98;;;;;;;30.34;33.50;99475.20;1685151;84;20921;-72
2022/08/30 10:38:28;;;;;;;3.55;2.15;;;;;;;30.43;33.68;99462.57;1695404;83;20864;-71
2022/08/30 10:41:38;;;;;;;6.40;2.58;;;;;;;30.57;33.19;99461.33;1702538;82;20947;-71
2022/08/30 10:44:24;;;;;;;28.00;2.92;;;;;;;30.53;33.12;99471.36;1716902;81;21090;-71
2022/08/30 10:47:31;;;;;;;20.77;2.95;;;;;;;30.49;34.02;99463.59;1715631;82;21153;-71
2022/08/30 10:50:21;;;;;;;10.40;2.52;;;;;;;30.80;33.78;99458.93;1710008;82;20923;-71
2022/08/30 10:53:04;;;;;;;20.32;2.40;;;;;;;30.97;32.35;99461.63;1713274;82;21022;-71
2022/08/30 10:55:59;;;;;;;11.45;2.40;;;;;;;31.06;32.39;99461.73;1728507;82;20970;-71
2022/08/30 10:58:30;;;;;;;5.35;2.42;;;;;;;31.15;33.01;99462.64;1715055;82;21077;-71
2022/08/30 11:01:35;;;;;;;5.75;1.95;;;;;;;31.19;31.78;99462.52;1692434;81;20963;-71
2022/08/30 11:04:18;;;;;;;5.55;2.58;;;;;;;31.24;31.86;99459.70;1718659;82;21037;-71
2022/08/30 11:07:10;;;;;;;3.90;2.42;;;;;;;31.37;32.11;99447.06;1721669;81;21063;-71
2022/08/30 11:10:04;;;;;;;3.35;2.20;;;;;;;31.25;32.09;99442.22;1713130;82;21011;-70
2022/08/30 11:13:05;;;;;;;11.38;2.70;;;;;;;31.07;31.90;99447.72;1707778;83;20979;-71
2022/08/30 11:15:35;;;;;;;6.95;2.33;;;;;;;31.03;32.66;99451.30;1720204;82;21146;-71
2022/08/30 11:18:12;;;;;;;5.33;2.12;;;;;;;31.17;32.69;99440.92;1698945;82;21545;-71
2022/08/30 11:20:48;;;;;;;8.50;2.30;;;;;;;31.15;32.09;99439.95;1678985;83;20987;-70
2022/08/30 11:23:37;;;;;;;43.87;4.30;;;;;;;31.17;32.17;99436.66;1668749;84;21003;-70
2022/08/30 11:26:11;;;;;;;6.03;2.12;;;;;;;31.25;31.61;99437.17;1675463;84;21054;-71
2022/08/30 11:28:47;;;;;;;6.20;2.35;;;;;;;31.28;31.27;99436.26;1689481;84;21256;-68
2022/08/30 11:31:29;;;;;;;10.30;2.60;;;;;;;31.30;31.62;99440.22;1695927;82;20955;-69
2022/08/30 11:33:58;;;;;;;4.70;2.40;;;;;;;31.28;31.86;99426.34;1715775;82;21471;-69
2022/08/30 11:36:37;;;;;;;5.78;2.75;;;;;;;31.33;31.84;99426.55;1705133;81;21046;-69
2022/08/30 11:39:12;;;;;;;4.17;2.12;;;;;;;31.32;31.63;99429.21;1722605;82;21448;-69
2022/08/30 11:41:46;;;;;;;8.90;2.30;;;;;;;31.36;31.78;99436.17;1707823;82;21185;-69
2022/08/30 11:44:28;;;;;;;14.18;3.50;;;;;;;31.56;32.04;99434.45;1702060;82;20911;-69
2022/08/30 11:47:00;;;;;;;7.00;3.27;;;;;;;31.70;31.42;99429.06;1720481;81;20884;-69
2022/08/30 11:49:44;;;;;;;27.13;3.65;;;;;;;31.85;30.20;99427.88;1708388;83;20976;-69
2022/08/30 11:52:25;;;;;;;5.92;2.35;;;;;;;31.87;31.10;99425.36;1714142;81;20888;-69
2022/08/30 11:55:31;;;;;;;4.65;2.02;;;;;;;31.99;30.87;99428.75;1711621;83;21776;-69
2022/08/30 11:58:22;;;;;;;9.70;2.75;;;;;;;32.05;29.91;99415.53;1694383;83;21490;-70
2022/08/30 12:01:28;;;;;;;7.15;2.45;;;;;;;32.12;30.52;99422.36;1714309;83;20974;-69
2022/08/30 12:04:07;;;;;;;7.92;2.50;;;;;;;32.38;30.60;99420.74;1608689;87;21282;-70